createdAt,value
2022-12-25T00:01:19.923Z,101375.16
2022-12-25T00:03:47.421Z,101371.66
2022-12-25T00:06:14.530Z,101364.38
2022-12-25T00:08:43.225Z,101360.56
2022-12-25T00:11:13.142Z,101358.59
2022-12-25T00:13:43.962Z,101352.28
2022-12-25T00:16:14.877Z,101346.81
2022-12-25T00:18:41.666Z,101351.97
2022-12-25T00:21:08.449Z,101341.16
2022-12-25T00:23:35.644Z,101344.50
2022-12-25T00:26:06.566Z,101342.53
2022-12-25T00:28:33.380Z,101334.41
2022-12-25T00:31:03.915Z,101328.75
2022-12-25T00:33:30.717Z,101331.25
2022-12-25T00:35:58.609Z,101335.41
2022-12-25T00:38:25.857Z,101343.19
2022-12-25T00:40:53.012Z,101334.91
2022-12-25T00:43:21.707Z,101324.13
2022-12-25T00:45:55.359Z,101333.75
2022-12-25T00:48:22.397Z,101331.09
2022-12-25T00:50:49.144Z,101336.41
2022-12-25T00:53:16.035Z,101335.06
2022-12-25T00:55:42.722Z,101336.06
2022-12-25T00:58:09.425Z,101334.22
2022-12-25T01:00:39.297Z,101337.72
2022-12-25T01:03:06.151Z,101336.56
2022-12-25T01:05:32.868Z,101332.09
2022-12-25T01:07:59.520Z,101338.03
2022-12-25T01:10:26.911Z,101338.88
2022-12-25T01:12:53.616Z,101338.88
2022-12-25T01:15:20.560Z,101338.56
2022-12-25T01:17:48.594Z,101335.91
2022-12-25T01:20:16.882Z,101335.06
2022-12-25T01:22:44.991Z,101342.03
2022-12-25T01:25:12.696Z,101346.34
2022-12-25T01:27:41.149Z,101351.47
2022-12-25T01:30:09.096Z,101360.28
2022-12-25T01:32:35.818Z,101352.31
2022-12-25T01:35:04.420Z,101362.59
2022-12-25T01:37:32.744Z,101354.81
2022-12-25T01:39:59.569Z,101346.84
2022-12-25T01:42:26.277Z,101352.00
2022-12-25T01:45:38.075Z,101358.97
2022-12-25T01:48:10.121Z,101352.81
2022-12-25T01:50:41.133Z,101351.00
2022-12-25T01:53:08.433Z,101343.88
2022-12-25T01:55:37.736Z,101345.53
2022-12-25T01:58:07.781Z,101348.81
2022-12-25T02:00:34.571Z,101348.81
2022-12-25T02:03:01.543Z,101346.84
2022-12-25T02:05:30.461Z,101353.66
2022-12-25T02:08:02.996Z,101357.31
2022-12-25T02:10:29.743Z,101359.78
2022-12-25T02:12:56.697Z,101356.94
2022-12-25T02:15:29.983Z,101366.56
2022-12-25T02:18:05.980Z,101361.25
2022-12-25T02:21:08.251Z,101362.09
2022-12-25T02:24:09.778Z,101367.41
2022-12-25T02:26:59.817Z,101366.56
2022-12-25T02:29:34.464Z,101358.63
2022-12-25T02:32:07.579Z,101357.78
2022-12-25T02:34:40.514Z,101348.00
2022-12-25T02:37:12.830Z,101353.31
2022-12-25T02:39:59.948Z,101349.81
2022-12-25T02:42:53.032Z,101351.47
2022-12-25T02:45:44.454Z,101349.81
2022-12-25T02:48:31.614Z,101352.47
2022-12-25T02:51:21.893Z,101355.13
2022-12-25T02:54:12.175Z,101345.69
2022-12-25T02:56:59.295Z,101347.50
2022-12-25T02:59:48.043Z,101337.88
2022-12-25T03:02:37.109Z,101336.06
2022-12-25T03:05:28.203Z,101327.41
2022-12-25T03:07:56.865Z,101322.28
2022-12-25T03:10:42.892Z,101325.75
2022-12-25T03:13:16.336Z,101315.31
2022-12-25T03:16:02.106Z,101310.00
2022-12-25T03:18:32.580Z,101308.16
2022-12-25T03:21:19.397Z,101302.69
2022-12-25T03:24:09.580Z,101300.88
2022-12-25T03:26:54.767Z,101284.94
2022-12-25T03:29:39.960Z,101272.50
2022-12-25T03:32:16.563Z,101267.19
2022-12-25T03:35:12.942Z,101271.66
2022-12-25T03:38:09.361Z,101272.66
2022-12-25T03:41:06.669Z,101276.97
2022-12-25T03:43:59.589Z,101266.53
2022-12-25T03:46:51.144Z,101274.66
2022-12-25T03:49:42.394Z,101273.00
2022-12-25T03:52:33.315Z,101266.03
2022-12-25T03:55:21.605Z,101272.34
2022-12-25T03:58:07.231Z,101275.16
2022-12-25T04:00:52.400Z,101279.63
2022-12-25T04:03:37.594Z,101280.47
2022-12-25T04:06:23.175Z,101276.97
2022-12-25T04:09:09.638Z,101275.00
2022-12-25T04:12:00.469Z,101271.69
2022-12-25T04:14:47.515Z,101271.00
2022-12-25T04:17:32.606Z,101276.31
2022-12-25T04:20:17.649Z,101275.50
2022-12-25T04:23:03.329Z,101278.97
2022-12-25T04:25:49.931Z,101286.13
2022-12-25T04:28:35.007Z,101289.78
2022-12-25T04:31:20.109Z,101292.44
2022-12-25T04:34:05.210Z,101294.09
2022-12-25T04:36:34.256Z,101299.41
2022-12-25T04:39:01.292Z,101302.06
2022-12-25T04:41:29.355Z,101297.56
2022-12-25T04:43:56.007Z,101296.56
2022-12-25T04:46:22.744Z,101299.22
2022-12-25T04:48:49.475Z,101286.59
2022-12-25T04:51:17.956Z,101290.09
2022-12-25T04:53:45.555Z,101290.94
2022-12-25T04:56:12.351Z,101296.25
2022-12-25T04:58:41.144Z,101283.13
2022-12-25T05:01:08.145Z,101279.31
2022-12-25T05:03:35.386Z,101267.03
2022-12-25T05:06:03.349Z,101265.06
2022-12-25T05:08:31.767Z,101266.69
2022-12-25T05:10:58.696Z,101266.69
2022-12-25T05:13:26.037Z,101270.34
2022-12-25T05:15:54.195Z,101269.53
2022-12-25T05:18:21.069Z,101267.69
2022-12-25T05:20:54.456Z,101271.34
2022-12-25T05:23:22.121Z,101262.56
2022-12-25T05:25:48.903Z,101254.75
2022-12-25T05:28:16.216Z,101254.91
2022-12-25T05:30:43.059Z,101255.75
2022-12-25T05:33:11.196Z,101262.06
2022-12-25T05:35:38.456Z,101260.56
2022-12-25T05:38:05.389Z,101250.97
2022-12-25T05:40:32.297Z,101239.81
2022-12-25T05:42:59.030Z,101241.19
2022-12-25T05:45:25.755Z,101251.13
2022-12-25T05:47:52.674Z,101247.00
2022-12-25T05:50:20.951Z,101246.50
2022-12-25T05:52:47.936Z,101246.50
2022-12-25T05:55:14.697Z,101230.09
2022-12-25T05:57:41.434Z,101229.59
2022-12-25T06:00:09.235Z,101213.19
2022-12-25T06:02:36.941Z,101217.00
2022-12-25T06:05:04.521Z,101214.66
2022-12-25T06:07:32.715Z,101215.16
2022-12-25T06:09:59.391Z,101230.41
2022-12-25T06:12:26.113Z,101233.22
2022-12-25T06:14:52.876Z,101229.94
2022-12-25T06:17:19.551Z,101214.34
2022-12-25T06:19:46.270Z,101218.97
2022-12-25T06:22:12.968Z,101213.19
2022-12-25T06:24:41.535Z,101208.03
2022-12-25T06:27:08.408Z,101205.75
2022-12-25T06:29:35.141Z,101194.47
2022-12-25T06:32:01.884Z,101205.38
2022-12-25T06:34:28.708Z,101212.69
2022-12-25T06:36:55.377Z,101210.22
2022-12-25T06:39:22.583Z,101214.69
2022-12-25T06:41:50.741Z,101213.00
2022-12-25T06:44:17.408Z,101202.41
2022-12-25T06:46:44.087Z,101196.28
2022-12-25T06:49:11.064Z,101192.78
2022-12-25T06:51:37.831Z,101191.81
2022-12-25T06:54:05.218Z,101189.16
2022-12-25T06:56:32.946Z,101180.19
2022-12-25T06:59:02.967Z,101174.75
2022-12-25T07:01:34.707Z,101162.31
2022-12-25T07:04:03.676Z,101168.59
2022-12-25T07:06:30.611Z,101165.78
2022-12-25T07:08:57.459Z,101159.47
2022-12-25T07:11:24.590Z,101150.53
2022-12-25T07:13:52.335Z,101153.00
2022-12-25T07:16:20.631Z,101143.06
2022-12-25T07:18:47.401Z,101138.41
2022-12-25T07:21:15.837Z,101142.09
2022-12-25T07:23:43.787Z,101161.28
2022-12-25T07:26:11.729Z,101160.31
2022-12-25T07:28:38.923Z,101166.44
2022-12-25T07:31:11.481Z,101175.06
2022-12-25T07:33:40.019Z,101184.69
2022-12-25T07:36:07.793Z,101190.81
2022-12-25T07:38:39.453Z,101191.44
2022-12-25T07:41:08.604Z,101196.59
2022-12-25T07:43:35.288Z,101180.53
2022-12-25T07:46:02.190Z,101183.00
2022-12-25T07:48:29.787Z,101182.03
2022-12-25T07:50:59.585Z,101193.44
2022-12-25T07:53:26.753Z,101202.91
2022-12-25T07:56:00.670Z,101177.19
2022-12-25T07:58:27.755Z,101185.00
2022-12-25T08:00:54.990Z,101183.16
2022-12-25T08:03:22.005Z,101188.31
2022-12-25T08:05:49.041Z,101178.50
2022-12-25T08:08:17.424Z,101186.31
2022-12-25T08:10:47.939Z,101185.16
2022-12-25T08:13:14.973Z,101195.59
2022-12-25T08:15:42.255Z,101192.75
2022-12-25T08:18:09.591Z,101205.03
2022-12-25T08:20:36.627Z,101201.22
2022-12-25T08:23:03.985Z,101203.72
2022-12-25T08:25:32.533Z,101212.50
2022-12-25T08:28:00.283Z,101206.00
2022-12-25T08:30:27.461Z,101211.31
2022-12-25T08:32:54.244Z,101206.69
2022-12-25T08:35:21.223Z,101197.06
2022-12-25T08:37:47.917Z,101200.38
2022-12-25T08:40:16.094Z,101198.41
2022-12-25T08:42:44.571Z,101190.44
2022-12-25T08:45:14.289Z,101179.47
2022-12-25T08:47:41.454Z,101178.47
2022-12-25T08:50:09.186Z,101179.31
2022-12-25T08:52:36.088Z,101171.19
2022-12-25T08:55:08.321Z,101168.34
2022-12-25T08:57:35.042Z,101174.31
2022-12-25T09:00:03.846Z,101175.97
2022-12-25T09:02:30.813Z,101178.44
2022-12-25T09:04:58.053Z,101188.25
2022-12-25T09:07:24.813Z,101193.56
2022-12-25T09:09:51.449Z,101183.59
2022-12-25T09:12:18.156Z,101173.81
2022-12-25T09:14:44.927Z,101178.75
2022-12-25T09:17:12.957Z,101190.22
2022-12-25T09:19:39.796Z,101191.03
2022-12-25T09:22:06.458Z,101190.03
2022-12-25T09:24:33.178Z,101182.91
2022-12-25T09:27:00.101Z,101178.28
2022-12-25T09:29:26.795Z,101179.91
2022-12-25T09:31:53.446Z,101185.03
2022-12-25T09:34:21.594Z,101174.44
2022-12-25T09:36:49.534Z,101190.03
2022-12-25T09:39:16.277Z,101196.16
2022-12-25T09:41:52.901Z,101199.47
2022-12-25T09:44:24.104Z,101195.81
2022-12-25T09:46:53.986Z,101207.25
2022-12-25T09:49:33.025Z,101216.88
2022-12-25T09:52:05.102Z,101202.63
2022-12-25T09:54:39.742Z,101192.00
2022-12-25T09:57:11.921Z,101182.19
2022-12-25T09:59:39.627Z,101176.06
2022-12-25T10:02:33.673Z,101161.78
2022-12-25T10:05:16.759Z,101155.47
2022-12-25T10:07:49.894Z,101156.31
2022-12-25T10:10:36.300Z,101147.31
2022-12-25T10:13:12.842Z,101156.94
2022-12-25T10:15:50.556Z,101156.94
2022-12-25T10:18:45.334Z,101150.63
2022-12-25T10:21:18.227Z,101157.44
2022-12-25T10:23:49.754Z,101160.09
2022-12-25T10:26:18.955Z,101155.41
2022-12-25T10:28:47.346Z,101153.78
2022-12-25T10:31:21.102Z,101139.31
2022-12-25T10:33:49.250Z,101134.00
2022-12-25T10:36:19.674Z,101141.81
2022-12-25T10:38:47.509Z,101138.31
2022-12-25T10:41:26.336Z,101133.84
2022-12-25T10:43:57.294Z,101124.88
2022-12-25T10:46:26.470Z,101125.72
2022-12-25T10:48:55.613Z,101131.84
2022-12-25T10:51:35.614Z,101122.22
2022-12-25T10:54:03.839Z,101122.88
2022-12-25T10:56:30.805Z,101123.72
2022-12-25T10:59:07.323Z,101118.19
2022-12-25T11:01:34.209Z,101127.00
2022-12-25T11:04:01.152Z,101120.84
2022-12-25T11:06:31.062Z,101108.41
2022-12-25T11:09:01.330Z,101117.88
2022-12-25T11:11:29.481Z,101108.06
2022-12-25T11:13:59.059Z,101099.28
2022-12-25T11:16:29.264Z,101086.81
2022-12-25T11:18:57.617Z,101084.16
2022-12-25T11:21:26.872Z,101085.81
2022-12-25T11:23:57.742Z,101068.22
2022-12-25T11:26:27.930Z,101069.06
2022-12-25T11:28:56.135Z,101069.06
2022-12-25T11:31:28.016Z,101059.44
2022-12-25T11:34:00.504Z,101046.97
2022-12-25T11:36:33.082Z,101038.19
2022-12-25T11:39:08.234Z,101033.88
2022-12-25T11:41:37.810Z,101027.72
2022-12-25T11:44:26.734Z,101031.22
2022-12-25T11:46:56.225Z,101017.28
2022-12-25T11:49:24.517Z,101003.00
2022-12-25T11:51:56.259Z,101004.47
2022-12-25T11:54:28.408Z,101001.81
2022-12-25T11:57:00.616Z,100998.16
2022-12-25T11:59:32.210Z,100992.03
2022-12-25T12:02:03.869Z,100989.38
2022-12-25T12:04:42.359Z,100996.50
2022-12-25T12:07:22.153Z,100984.22
2022-12-25T12:09:54.090Z,100987.72
2022-12-25T12:12:29.440Z,100981.88
2022-12-25T12:15:03.134Z,100990.81
2022-12-25T12:17:30.139Z,100980.91
2022-12-25T12:19:56.991Z,100981.72
2022-12-25T12:22:28.094Z,100979.72
2022-12-25T12:24:59.668Z,100973.19
2022-12-25T12:27:34.788Z,100971.38
2022-12-25T12:30:02.319Z,100969.38
2022-12-25T12:32:40.853Z,100971.03
2022-12-25T12:35:14.807Z,100962.06
2022-12-25T12:37:42.605Z,100967.19
2022-12-25T12:40:27.200Z,100965.16
2022-12-25T12:42:56.061Z,100961.69
2022-12-25T12:45:29.052Z,100962.50
2022-12-25T12:47:56.807Z,100959.69
2022-12-25T12:50:34.195Z,100960.50
2022-12-25T12:53:16.506Z,100955.19
2022-12-25T12:55:43.556Z,100948.72
2022-12-25T12:58:29.991Z,100943.56
2022-12-25T13:01:07.705Z,100922.13
2022-12-25T13:03:54.000Z,100920.31
2022-12-25T13:06:28.856Z,100934.59
2022-12-25T13:09:06.808Z,100937.25
2022-12-25T13:11:39.061Z,100931.75
2022-12-25T13:14:16.201Z,100923.78
2022-12-25T13:16:47.066Z,100914.78
2022-12-25T13:19:16.553Z,100911.13
2022-12-25T13:21:53.179Z,100909.31
2022-12-25T13:24:23.292Z,100908.47
2022-12-25T13:26:50.799Z,100902.16
2022-12-25T13:29:32.824Z,100908.94
2022-12-25T13:32:01.812Z,100914.28
2022-12-25T13:34:31.830Z,100907.94
2022-12-25T13:37:00.386Z,100910.41
2022-12-25T13:39:27.699Z,100905.09
2022-12-25T13:42:09.951Z,100897.13
2022-12-25T13:44:52.201Z,100893.44
2022-12-25T13:47:22.996Z,100891.63
2022-12-25T13:49:51.657Z,100888.78
2022-12-25T13:52:21.307Z,100889.63
2022-12-25T13:55:11.277Z,100880.63
2022-12-25T13:57:41.369Z,100871.84
2022-12-25T14:00:20.359Z,100881.66
2022-12-25T14:02:48.342Z,100875.50
2022-12-25T14:05:42.118Z,100877.97
2022-12-25T14:08:15.333Z,100871.84
2022-12-25T14:10:44.798Z,100873.66
2022-12-25T14:13:14.878Z,100871.00
2022-12-25T14:15:45.254Z,100867.53
2022-12-25T14:18:15.641Z,100856.72
2022-12-25T14:20:57.332Z,100865.53
2022-12-25T14:23:24.635Z,100862.66
2022-12-25T14:25:52.052Z,100860.81
2022-12-25T14:28:21.560Z,100855.50
2022-12-25T14:30:50.163Z,100862.47
2022-12-25T14:33:20.589Z,100861.47
2022-12-25T14:35:48.501Z,100854.34
2022-12-25T14:38:23.132Z,100852.50
2022-12-25T14:40:59.303Z,100851.69
2022-12-25T14:43:27.653Z,100846.34
2022-12-25T14:45:59.224Z,100850.84
2022-12-25T14:48:28.561Z,100845.53
2022-12-25T14:51:00.328Z,100847.34
2022-12-25T14:53:34.637Z,100853.50
2022-12-25T14:56:01.877Z,100859.66
2022-12-25T14:58:31.284Z,100860.47
2022-12-25T15:01:01.462Z,100863.97
2022-12-25T15:03:31.281Z,100863.97
2022-12-25T15:06:02.463Z,100857.81
2022-12-25T15:08:31.167Z,100853.50
2022-12-25T15:11:02.241Z,100844.69
2022-12-25T15:13:30.619Z,100849.19
2022-12-25T15:16:02.850Z,100855.34
2022-12-25T15:18:34.229Z,100862.47
2022-12-25T15:21:01.148Z,100861.47
2022-12-25T15:23:28.482Z,100859.81
2022-12-25T15:25:55.333Z,100856.16
2022-12-25T15:28:22.544Z,100864.13
2022-12-25T15:30:50.153Z,100861.47
2022-12-25T15:33:19.149Z,100864.78
2022-12-25T15:35:46.123Z,100855.16
2022-12-25T15:38:13.671Z,100857.63
2022-12-25T15:40:41.555Z,100854.16
2022-12-25T15:43:38.982Z,100850.03
2022-12-25T15:46:02.228Z,100853.50
2022-12-25T15:48:30.503Z,100850.84
2022-12-25T15:50:57.322Z,100847.34
2022-12-25T15:53:24.573Z,100843.88
2022-12-25T15:55:51.395Z,100844.69
2022-12-25T15:58:18.243Z,100848.38
2022-12-25T16:00:44.985Z,100843.88
2022-12-25T16:03:12.089Z,100854.50
2022-12-25T16:05:40.540Z,100854.50
2022-12-25T16:08:07.389Z,100844.69
2022-12-25T16:10:38.662Z,100835.06
2022-12-25T16:13:05.630Z,100836.91
2022-12-25T16:15:32.517Z,100830.97
2022-12-25T16:17:59.316Z,100827.66
2022-12-25T16:20:26.129Z,100821.53
2022-12-25T16:22:55.346Z,100808.25
2022-12-25T16:25:22.267Z,100801.28
2022-12-25T16:27:49.091Z,100793.47
2022-12-25T16:30:17.975Z,100795.50
2022-12-25T16:32:48.630Z,100796.53
2022-12-25T16:35:15.484Z,100794.69
2022-12-25T16:37:42.526Z,100792.22
2022-12-25T16:40:11.455Z,100793.88
2022-12-25T16:42:39.282Z,100794.69
2022-12-25T16:45:07.366Z,100789.72
2022-12-25T16:47:34.927Z,100785.25
2022-12-25T16:50:03.600Z,100786.25
2022-12-25T16:52:34.080Z,100783.75
2022-12-25T16:55:02.069Z,100767.03
2022-12-25T16:57:31.364Z,100771.50
2022-12-25T16:59:58.195Z,100783.97
2022-12-25T17:02:25.208Z,100782.31
2022-12-25T17:04:52.429Z,100783.16
2022-12-25T17:07:19.638Z,100783.16
2022-12-25T17:09:49.967Z,100776.19
2022-12-25T17:12:17.167Z,100778.66
2022-12-25T17:14:45.568Z,100764.56
2022-12-25T17:17:14.117Z,100762.72
2022-12-25T17:19:41.759Z,100762.91
2022-12-25T17:22:08.640Z,100765.56
2022-12-25T17:24:37.736Z,100776.00
2022-12-25T17:27:08.614Z,100778.44
2022-12-25T17:29:36.207Z,100786.25
2022-12-25T17:32:04.817Z,100795.03
2022-12-25T17:34:33.866Z,100788.72
2022-12-25T17:37:01.006Z,100786.06
2022-12-25T17:39:28.024Z,100788.72
2022-12-25T17:41:55.109Z,100792.03
2022-12-25T17:44:22.510Z,100798.16
2022-12-25T17:46:50.575Z,100791.84
2022-12-25T17:49:21.599Z,100786.53
2022-12-25T17:51:50.847Z,100786.53
2022-12-25T17:54:17.714Z,100797.16
2022-12-25T17:56:46.098Z,100792.84
2022-12-25T17:59:18.841Z,100798.78
2022-12-25T18:01:47.312Z,100797.97
2022-12-25T18:04:15.936Z,100801.44
2022-12-25T18:06:44.242Z,100797.78
2022-12-25T18:09:13.375Z,100792.47
2022-12-25T18:11:43.335Z,100795.94
2022-12-25T18:14:14.373Z,100790.63
2022-12-25T18:16:45.030Z,100792.28
2022-12-25T18:19:13.478Z,100803.75
2022-12-25T18:21:40.294Z,100798.44
2022-12-25T18:24:09.242Z,100792.13
2022-12-25T18:26:36.581Z,100783.31
2022-12-25T18:29:03.927Z,100783.31
2022-12-25T18:31:32.408Z,100778.81
2022-12-25T18:34:00.293Z,100772.69
2022-12-25T18:36:29.723Z,100777.81
2022-12-25T18:38:58.151Z,100781.66
2022-12-25T18:41:28.445Z,100787.81
2022-12-25T18:43:56.040Z,100793.94
2022-12-25T18:46:24.724Z,100793.94
2022-12-25T18:48:54.029Z,100794.78
2022-12-25T18:51:20.787Z,100793.13
2022-12-25T18:53:47.624Z,100806.22
2022-12-25T18:56:18.037Z,100804.41
2022-12-25T18:58:47.327Z,100811.53
2022-12-25T19:01:18.060Z,100810.53
2022-12-25T19:03:46.088Z,100806.22
2022-12-25T19:06:17.330Z,100799.09
2022-12-25T19:08:44.387Z,100803.56
2022-12-25T19:11:11.200Z,100798.25
2022-12-25T19:13:38.140Z,100793.94
2022-12-25T19:16:07.094Z,100788.63
2022-12-25T19:18:33.952Z,100796.59
2022-12-25T19:21:02.936Z,100792.13
2022-12-25T19:23:29.721Z,100785.78
2022-12-25T19:25:56.602Z,100778.66
2022-12-25T19:28:25.016Z,100776.81
2022-12-25T19:30:52.962Z,100782.13
2022-12-25T19:33:22.228Z,100768.84
2022-12-25T19:35:49.835Z,100770.47
2022-12-25T19:38:16.693Z,100771.50
2022-12-25T19:41:00.207Z,100773.13
2022-12-25T19:43:27.818Z,100776.81
2022-12-25T19:45:54.652Z,100776.81
2022-12-25T19:48:23.246Z,100781.31
2022-12-25T19:50:50.735Z,100785.59
2022-12-25T19:53:18.578Z,100780.47
2022-12-25T19:55:45.525Z,100783.13
2022-12-25T19:58:13.695Z,100780.47
2022-12-25T20:00:41.814Z,100783.13
2022-12-25T20:03:09.029Z,100771.03
2022-12-25T20:05:37.171Z,100773.69
2022-12-25T20:08:04.165Z,100772.88
2022-12-25T20:10:30.999Z,100775.53
2022-12-25T20:12:57.802Z,100774.69
2022-12-25T20:15:25.178Z,100771.22
2022-12-25T20:17:51.967Z,100770.59
2022-12-25T20:20:18.917Z,100781.22
2022-12-25T20:22:46.999Z,100785.72
2022-12-25T20:25:14.034Z,100791.84
2022-12-25T20:27:40.834Z,100783.88
2022-12-25T20:30:08.376Z,100788.16
2022-12-25T20:32:36.224Z,100797.16
2022-12-25T20:35:03.254Z,100793.47
2022-12-25T20:37:30.187Z,100795.31
2022-12-25T20:39:58.471Z,100803.28
2022-12-25T20:42:25.379Z,100799.81
2022-12-25T20:44:52.460Z,100798.78
2022-12-25T20:47:20.397Z,100803.28
2022-12-25T20:49:47.854Z,100809.63
2022-12-25T20:52:15.920Z,100812.28
2022-12-25T20:54:43.610Z,100809.63
2022-12-25T20:57:11.666Z,100808.81
2022-12-25T20:59:38.445Z,100823.09
2022-12-25T21:02:05.401Z,100820.44
2022-12-25T21:04:32.498Z,100813.47
2022-12-25T21:07:00.327Z,100813.47
2022-12-25T21:09:27.343Z,100813.47
2022-12-25T21:11:54.159Z,100811.81
2022-12-25T21:14:22.342Z,100815.47
2022-12-25T21:16:50.115Z,100812.63
2022-12-25T21:19:18.008Z,100817.94
2022-12-25T21:21:44.954Z,100817.13
2022-12-25T21:24:11.775Z,100821.63
2022-12-25T21:26:41.819Z,100817.94
2022-12-25T21:29:13.053Z,100819.78
2022-12-25T21:32:00.008Z,100827.75
2022-12-25T21:34:30.532Z,100838.38
2022-12-25T21:36:57.308Z,100847.34
2022-12-25T21:39:24.021Z,100849.00
2022-12-25T21:41:52.716Z,100861.47
2022-12-25T21:44:19.473Z,100863.31
2022-12-25T21:46:47.681Z,100866.97
2022-12-25T21:49:34.522Z,100872.28
2022-12-25T21:52:07.505Z,100876.75
2022-12-25T21:54:35.270Z,100870.66
2022-12-25T21:57:02.078Z,100867.16
2022-12-25T21:59:29.116Z,100857.53
2022-12-25T22:02:00.630Z,100849.41
2022-12-25T22:04:27.712Z,100854.72
2022-12-25T22:07:12.791Z,100857.38
2022-12-25T22:09:39.649Z,100857.16
2022-12-25T22:12:31.955Z,100867.16
2022-12-25T22:15:06.496Z,100860.03
2022-12-25T22:17:56.379Z,100868.16
2022-12-25T22:20:25.318Z,100861.19
2022-12-25T22:22:54.714Z,100875.31
2022-12-25T22:25:22.682Z,100867.34
2022-12-25T22:27:50.580Z,100863.69
2022-12-25T22:30:19.325Z,100880.44
2022-12-25T22:32:48.488Z,100887.59
2022-12-25T22:35:16.045Z,100894.56
2022-12-25T22:37:43.750Z,100907.84
2022-12-25T22:40:13.057Z,100891.09
2022-12-25T22:42:40.433Z,100888.44
2022-12-25T22:45:08.207Z,100889.25
2022-12-25T22:47:35.742Z,100873.31
2022-12-25T22:50:04.396Z,100860.03
2022-12-25T22:52:31.206Z,100859.81
2022-12-25T22:54:58.004Z,100864.13
2022-12-25T22:57:25.418Z,100860.66
2022-12-25T22:59:52.863Z,100862.94
2022-12-25T23:02:20.084Z,100862.28
2022-12-25T23:04:47.166Z,100859.63
2022-12-25T23:07:15.744Z,100845.53
2022-12-25T23:09:44.194Z,100852.66
2022-12-25T23:12:31.831Z,100855.16
2022-12-25T23:14:58.671Z,100855.34
2022-12-25T23:17:44.187Z,100859.81
2022-12-25T23:20:33.266Z,100862.47
2022-12-25T23:23:20.377Z,100860.66
2022-12-25T23:26:06.898Z,100837.72
2022-12-25T23:28:52.469Z,100854.50
2022-12-25T23:31:22.589Z,100858.16
2022-12-25T23:33:49.611Z,100847.75
2022-12-25T23:36:16.568Z,100847.75
2022-12-25T23:38:44.768Z,100842.44
2022-12-25T23:41:11.562Z,100849.56
2022-12-25T23:43:38.383Z,100856.72
2022-12-25T23:46:05.526Z,100855.06
2022-12-25T23:48:32.365Z,100862.84
2022-12-25T23:51:03.235Z,100869.00
2022-12-25T23:53:30.141Z,100868.00
2022-12-25T23:55:58.508Z,100869.63
2022-12-25T23:58:25.479Z,100885.56
